Time;durP1;ratioP1;P1;durP2;ratioP2;P2;SDS_P1;SDS_P2;PMS_P1;PMS_P2;Temp;Humidity;BMP_temperature;BMP_pressure;BME280_temperature;BME280_humidity;BME280_pressure;Samples;Min_cycle;Max_cycle;Signal;HPM_P1;HPM_P2
2022/10/19 00:00:59;;;;;;;258.67;240.30;;;14.10;99.90;;;;;;5035852;28;20190;-77
2022/10/19 00:03:25;;;;;;;189.10;175.53;;;14.10;99.90;;;;;;5036066;28;20198;-77
2022/10/19 00:05:50;;;;;;;86.67;61.53;;;14.10;99.90;;;;;;5039602;28;20183;-76
2022/10/19 00:08:16;;;;;;;59.47;28.30;;;14.10;99.90;;;;;;5045239;28;20207;-77
2022/10/19 00:10:42;;;;;;;41.77;18.00;;;14.10;99.90;;;;;;5035248;28;20264;-78
2022/10/19 00:13:07;;;;;;;51.00;46.20;;;14.00;99.90;;;;;;5035853;28;20205;-78
2022/10/19 00:15:38;;;;;;;68.53;56.77;;;14.00;99.90;;;;;;5035667;28;20171;-77
2022/10/19 00:18:05;;;;;;;55.13;50.27;;;14.00;99.90;;;;;;5045548;28;20210;-76
2022/10/19 00:20:30;;;;;;;53.03;27.63;;;14.00;99.90;;;;;;5038450;28;20183;-76
2022/10/19 00:22:56;;;;;;;61.47;53.63;;;14.00;99.90;;;;;;5032517;28;20214;-76
2022/10/19 00:25:22;;;;;;;100.30;70.33;;;14.00;99.90;;;;;;5034180;28;20187;-77
2022/10/19 00:27:47;;;;;;;107.23;80.63;;;14.00;99.90;;;;;;5034510;28;20211;-77
2022/10/19 00:30:13;;;;;;;64.17;56.90;;;14.10;99.90;;;;;;5033626;28;20257;-77
2022/10/19 00:32:39;;;;;;;75.00;40.37;;;14.10;99.90;;;;;;5034191;28;20773;-77
2022/10/19 00:35:05;;;;;;;143.97;131.83;;;14.10;99.90;;;;;;5028051;28;20183;-77
2022/10/19 00:37:31;;;;;;;146.83;134.57;;;14.20;99.90;;;;;;5031710;28;20232;-76
2022/10/19 00:39:57;;;;;;;144.43;131.87;;;14.10;99.90;;;;;;5034781;28;20179;-77
2022/10/19 00:42:23;;;;;;;89.37;69.40;;;14.00;99.90;;;;;;5031944;28;20875;-76
2022/10/19 00:44:48;;;;;;;114.20;43.97;;;14.00;99.90;;;;;;5032159;28;20215;-77
2022/10/19 00:47:16;;;;;;;93.17;35.23;;;14.00;99.90;;;;;;5032102;28;20294;-77
2022/10/19 00:49:44;;;;;;;81.83;61.20;;;13.90;99.90;;;;;;5032483;28;20175;-77
2022/10/19 00:52:16;;;;;;;85.87;58.20;;;13.90;99.90;;;;;;5032849;28;20179;-77
2022/10/19 00:54:44;;;;;;;66.67;52.97;;;13.90;99.90;;;;;;5033281;28;20233;-77
2022/10/19 00:57:11;;;;;;;55.73;36.17;;;14.00;99.90;;;;;;5014193;28;20275;-76
2022/10/19 00:59:39;;;;;;;69.50;31.13;;;14.00;99.90;;;;;;5012672;28;20184;-77
2022/10/19 01:02:05;;;;;;;70.57;32.60;;;14.00;99.90;;;;;;5012144;28;20179;-76
2022/10/19 01:04:34;;;;;;;49.83;26.27;;;14.10;99.90;;;;;;5011656;28;20194;-77
2022/10/19 01:07:03;;;;;;;52.47;26.83;;;14.10;99.90;;;;;;5039931;28;20201;-73
2022/10/19 01:09:29;;;;;;;69.93;27.27;;;14.00;99.90;;;;;;5045256;28;20183;-75
2022/10/19 01:12:19;;;;;;;102.33;51.50;;;14.10;99.90;;;;;;5035015;28;20313;-76
2022/10/19 01:15:07;;;;;;;117.20;68.47;;;14.10;99.90;;;;;;5032485;28;20183;-77
2022/10/19 01:18:03;;;;;;;102.60;62.47;;;14.10;99.90;;;;;;5031948;28;20190;-77
2022/10/19 01:20:39;;;;;;;47.03;31.03;;;14.10;99.90;;;;;;5030968;28;20270;-76
2022/10/19 01:23:23;;;;;;;46.97;27.80;;;14.20;99.90;;;;;;5032968;28;20224;-79
2022/10/19 01:26:08;;;;;;;54.83;25.23;;;14.20;99.90;;;;;;5033083;28;20236;-77
2022/10/19 01:29:11;;;;;;;51.67;28.10;;;14.20;99.90;;;;;;5034268;28;20627;-79
2022/10/19 01:31:53;;;;;;;42.57;26.47;;;14.20;99.90;;;;;;5033218;28;20185;-79
2022/10/19 01:34:22;;;;;;;76.77;22.30;;;14.30;99.90;;;;;;5035499;28;20265;-78
2022/10/19 01:36:59;;;;;;;43.00;28.10;;;14.20;99.90;;;;;;5033770;28;20265;-79
2022/10/19 01:39:42;;;;;;;46.43;41.73;;;14.20;99.90;;;;;;5033977;28;20237;-78
2022/10/19 01:42:23;;;;;;;42.83;37.60;;;14.20;99.90;;;;;;5033879;28;20175;-78
2022/10/19 01:44:59;;;;;;;28.03;25.03;;;14.20;99.90;;;;;;5046608;28;20167;-76
2022/10/19 01:47:40;;;;;;;46.87;42.83;;;14.20;99.90;;;;;;5040318;28;20399;-78
2022/10/19 01:50:14;;;;;;;92.83;86.43;;;14.20;99.90;;;;;;5036349;28;20210;-78
2022/10/19 01:52:41;;;;;;;72.27;67.50;;;14.20;99.90;;;;;;5036265;28;20209;-77
2022/10/19 01:55:11;;;;;;;79.67;73.00;;;14.30;99.90;;;;;;5033676;28;20179;-78
2022/10/19 01:57:49;;;;;;;30.43;15.40;;;14.30;99.90;;;;;;5032272;28;20187;-77
2022/10/19 02:00:16;;;;;;;46.27;18.13;;;14.30;99.90;;;;;;5033074;28;20171;-76
2022/10/19 02:02:46;;;;;;;21.00;18.93;;;14.30;99.90;;;;;;5040812;28;20222;-75
2022/10/19 02:05:14;;;;;;;27.77;25.33;;;14.30;99.90;;;;;;5051794;28;20175;-77
2022/10/19 02:07:44;;;;;;;29.60;27.30;;;14.30;99.90;;;;;;5041484;28;20211;-76
2022/10/19 02:10:10;;;;;;;23.07;21.17;;;14.30;99.90;;;;;;5032600;28;20205;-78
2022/10/19 02:12:36;;;;;;;37.43;34.67;;;14.40;99.90;;;;;;5029673;28;20282;-76
2022/10/19 02:15:09;;;;;;;49.77;46.73;;;14.40;99.90;;;;;;5030959;28;20194;-77
2022/10/19 02:17:45;;;;;;;69.33;65.27;;;14.30;99.90;;;;;;5030530;28;20183;-77
2022/10/19 02:20:12;;;;;;;85.37;80.50;;;14.30;99.90;;;;;;5030786;28;20556;-77
2022/10/19 02:22:38;;;;;;;90.73;85.37;;;14.30;99.90;;;;;;5030062;28;20246;-76
2022/10/19 02:25:05;;;;;;;93.30;87.50;;;14.30;99.90;;;;;;5029515;28;20241;-76
2022/10/19 02:27:32;;;;;;;53.80;50.40;;;14.30;99.90;;;;;;5031503;28;20565;-77
2022/10/19 02:29:58;;;;;;;22.80;20.87;;;14.30;99.90;;;;;;5030399;28;20179;-77
2022/10/19 02:32:25;;;;;;;12.13;10.87;;;14.30;99.90;;;;;;5030681;28;20241;-76
2022/10/19 02:34:51;;;;;;;13.90;12.80;;;14.30;99.90;;;;;;5029424;28;20193;-77
2022/10/19 02:37:16;;;;;;;22.07;20.40;;;14.30;99.90;;;;;;5031279;28;20578;-77
2022/10/19 02:39:42;;;;;;;24.77;23.13;;;14.30;99.90;;;;;;5031209;28;20264;-76
2022/10/19 02:42:15;;;;;;;16.97;15.43;;;14.40;99.90;;;;;;5030471;28;20214;-76
2022/10/19 02:44:52;;;;;;;28.87;26.90;;;14.30;99.90;;;;;;5030530;28;20660;-77
2022/10/19 02:47:21;;;;;;;38.83;36.00;;;14.40;99.90;;;;;;5042830;28;20210;-75
2022/10/19 02:49:48;;;;;;;75.37;70.53;;;14.40;99.90;;;;;;5032814;28;20206;-77
2022/10/19 02:52:14;;;;;;;39.33;36.80;;;14.40;99.90;;;;;;5031077;28;20233;-77
2022/10/19 02:54:43;;;;;;;13.17;11.87;;;14.30;99.90;;;;;;5030571;28;20778;-77
2022/10/19 02:57:18;;;;;;;45.10;41.80;;;14.30;99.90;;;;;;5030061;28;20182;-76
2022/10/19 02:59:45;;;;;;;42.73;39.93;;;14.30;99.90;;;;;;5030291;28;20643;-76
2022/10/19 03:02:12;;;;;;;38.70;35.93;;;14.20;99.90;;;;;;5031808;28;20360;-77
2022/10/19 03:04:38;;;;;;;17.33;15.63;;;14.20;99.90;;;;;;5031796;28;20539;-77
2022/10/19 03:07:03;;;;;;;21.77;19.60;;;14.10;99.90;;;;;;5029013;28;20206;-77
2022/10/19 03:09:29;;;;;;;28.77;26.67;;;14.10;99.90;;;;;;5029677;28;20263;-76
2022/10/19 03:11:55;;;;;;;17.87;16.37;;;14.10;99.90;;;;;;5032577;28;20239;-77
2022/10/19 03:14:21;;;;;;;66.90;62.70;;;14.00;99.90;;;;;;5036479;28;20175;-75
2022/10/19 03:16:47;;;;;;;64.37;59.93;;;14.00;99.90;;;;;;5034771;28;20175;-78
2022/10/19 03:19:13;;;;;;;42.63;40.03;;;14.00;99.90;;;;;;5033579;28;20191;-77
2022/10/19 03:21:38;;;;;;;37.53;35.23;;;13.90;99.90;;;;;;5034382;28;20210;-77
2022/10/19 03:24:04;;;;;;;43.97;41.33;;;13.80;99.90;;;;;;5067887;23;20228;-79
2022/10/19 03:26:30;;;;;;;34.73;32.40;;;13.70;99.90;;;;;;5054697;28;20724;-80
2022/10/19 03:28:56;;;;;;;33.77;31.37;;;13.70;99.90;;;;;;5052594;28;20302;-80
2022/10/19 03:31:22;;;;;;;56.27;53.00;;;13.60;99.90;;;;;;5065723;28;20174;-79
2022/10/19 03:33:49;;;;;;;58.60;55.10;;;13.60;99.90;;;;;;5073255;28;20200;-79
2022/10/19 03:36:35;;;;;;;35.03;32.57;;;13.50;99.90;;;;;;5076519;28;20185;-80
2022/10/19 03:39:04;;;;;;;31.47;29.23;;;13.50;99.90;;;;;;5074111;28;20223;-80
2022/10/19 03:41:34;;;;;;;20.23;18.07;;;13.40;99.90;;;;;;5075204;28;20188;-80
2022/10/19 03:44:00;;;;;;;16.73;15.30;;;13.40;99.90;;;;;;5063572;28;20203;-80
2022/10/19 03:46:26;;;;;;;12.53;11.27;;;13.30;99.90;;;;;;5052913;28;20177;-81
2022/10/19 03:48:53;;;;;;;17.77;16.27;;;13.30;99.90;;;;;;5052704;28;20210;-79
2022/10/19 03:51:21;;;;;;;27.13;24.90;;;13.30;99.90;;;;;;5054847;28;20666;-80
2022/10/19 03:53:51;;;;;;;25.27;23.37;;;13.20;99.90;;;;;;5054202;28;20695;-79
2022/10/19 03:56:19;;;;;;;23.13;21.63;;;13.10;99.90;;;;;;5064358;28;20215;-79
2022/10/19 03:58:47;;;;;;;37.97;35.57;;;13.10;99.90;;;;;;5056874;28;20265;-79
2022/10/19 04:01:19;;;;;;;33.23;31.03;;;13.00;99.90;;;;;;5055002;28;20273;-80
2022/10/19 04:03:45;;;;;;;34.87;32.37;;;13.00;99.90;;;;;;5055142;28;20593;-80
2022/10/19 04:06:16;;;;;;;34.20;31.63;;;13.00;99.90;;;;;;5056094;28;20181;-80
2022/10/19 04:08:44;;;;;;;27.87;25.97;;;12.80;99.90;;;;;;5055526;28;20218;-80
2022/10/19 04:11:12;;;;;;;21.60;19.73;;;12.90;99.90;;;;;;5061042;28;20193;-80
2022/10/19 04:13:38;;;;;;;21.77;19.97;;;12.80;99.90;;;;;;5057227;28;20504;-76
2022/10/19 04:16:05;;;;;;;25.73;23.77;;;12.70;99.90;;;;;;5053215;28;20181;-76
2022/10/19 04:18:30;;;;;;;32.83;30.70;;;12.70;99.90;;;;;;5052793;28;20190;-75
2022/10/19 04:20:58;;;;;;;23.43;21.57;;;12.70;99.90;;;;;;5052100;28;20190;-76
2022/10/19 04:23:29;;;;;;;22.10;20.40;;;12.70;99.90;;;;;;5051337;28;20221;-75
2022/10/19 04:26:06;;;;;;;24.83;23.10;;;12.60;99.90;;;;;;5068067;28;20283;-75
2022/10/19 04:28:33;;;;;;;19.07;17.40;;;12.60;99.90;;;;;;5078185;28;20588;-75
2022/10/19 04:31:04;;;;;;;20.37;16.30;;;12.60;99.90;;;;;;5077135;28;20276;-75
2022/10/19 04:33:31;;;;;;;17.50;16.17;;;12.50;99.90;;;;;;5073577;28;20238;-76
2022/10/19 04:36:02;;;;;;;18.13;16.43;;;12.60;99.90;;;;;;5046319;28;20182;-76
2022/10/19 04:38:28;;;;;;;17.80;16.27;;;12.60;99.90;;;;;;5052613;28;20702;-74
2022/10/19 04:40:55;;;;;;;20.40;15.90;;;12.60;99.90;;;;;;5048331;28;20196;-76
2022/10/19 04:43:21;;;;;;;15.43;11.43;;;12.50;99.90;;;;;;5037633;28;20203;-76
2022/10/19 04:45:47;;;;;;;13.97;12.77;;;12.50;99.90;;;;;;5041467;28;20175;-76
2022/10/19 04:48:13;;;;;;;18.60;17.03;;;12.50;99.90;;;;;;5042343;28;20709;-75
2022/10/19 04:50:38;;;;;;;24.53;22.70;;;12.50;99.90;;;;;;5052208;28;20591;-76
2022/10/19 04:53:04;;;;;;;30.43;28.33;;;12.60;99.90;;;;;;5051059;28;20658;-76
2022/10/19 04:55:30;;;;;;;35.07;31.70;;;12.60;99.90;;;;;;5050823;28;20170;-75
2022/10/19 04:57:56;;;;;;;32.60;30.43;;;12.70;99.90;;;;;;5051752;28;20189;-76
2022/10/19 05:00:21;;;;;;;22.00;20.20;;;12.80;99.90;;;;;;5052661;28;20273;-76
2022/10/19 05:02:47;;;;;;;17.00;15.30;;;12.80;99.90;;;;;;5051158;28;20762;-76
2022/10/19 05:05:13;;;;;;;21.30;19.70;;;12.80;99.90;;;;;;5052130;28;20178;-76
2022/10/19 05:07:40;;;;;;;39.47;36.47;;;12.80;99.90;;;;;;5066780;28;20253;-76
2022/10/19 05:10:07;;;;;;;42.83;39.73;;;12.90;99.90;;;;;;5050730;28;20214;-76
2022/10/19 05:12:36;;;;;;;20.63;18.57;;;12.90;99.90;;;;;;5051886;28;20613;-76
2022/10/19 05:15:03;;;;;;;60.47;57.00;;;12.90;99.90;;;;;;5051852;28;20662;-76
2022/10/19 05:17:30;;;;;;;109.77;103.40;;;13.00;99.90;;;;;;5050267;28;20186;-76
2022/10/19 05:19:56;;;;;;;66.70;62.20;;;13.00;99.90;;;;;;5059510;28;20184;-77
2022/10/19 05:22:22;;;;;;;38.93;36.07;;;13.10;99.90;;;;;;5069151;28;20577;-76
2022/10/19 05:24:48;;;;;;;49.17;45.77;;;13.10;99.90;;;;;;5053981;28;20182;-76
2022/10/19 05:27:13;;;;;;;34.73;32.03;;;13.10;99.90;;;;;;5051502;28;20695;-76
2022/10/19 05:29:39;;;;;;;32.77;30.43;;;13.20;99.90;;;;;;5050595;28;20264;-75
2022/10/19 05:32:05;;;;;;;23.07;21.13;;;13.20;99.90;;;;;;5051430;28;20178;-75
2022/10/19 05:34:31;;;;;;;18.23;16.40;;;13.30;99.90;;;;;;5051446;28;20202;-75
2022/10/19 05:36:57;;;;;;;17.60;15.83;;;13.30;99.90;;;;;;5050818;28;20280;-75
2022/10/19 05:39:23;;;;;;;18.73;16.00;;;13.30;99.90;;;;;;5049912;28;20204;-76
2022/10/19 05:41:49;;;;;;;19.47;17.87;;;13.30;99.90;;;;;;5052858;28;20212;-76
2022/10/19 05:44:20;;;;;;;19.83;17.90;;;13.40;99.90;;;;;;5051571;28;20591;-76
2022/10/19 05:46:47;;;;;;;23.97;22.00;;;13.40;99.90;;;;;;5050004;28;20178;-76
2022/10/19 05:49:14;;;;;;;33.93;31.33;;;13.50;99.90;;;;;;5051794;28;20205;-78
2022/10/19 05:51:40;;;;;;;27.60;25.53;;;13.50;99.90;;;;;;5049413;28;20178;-76
2022/10/19 05:54:07;;;;;;;19.17;17.50;;;13.60;99.90;;;;;;5050105;28;20198;-76
2022/10/19 05:56:33;;;;;;;17.13;15.33;;;13.60;99.90;;;;;;5052057;28;20186;-76
2022/10/19 05:59:02;;;;;;;31.40;28.87;;;13.70;99.90;;;;;;5034419;28;20186;-77
2022/10/19 06:01:30;;;;;;;31.73;28.97;;;13.70;99.90;;;;;;5051494;28;20218;-76
2022/10/19 06:03:58;;;;;;;32.77;30.33;;;13.70;99.90;;;;;;5052824;28;20690;-77
2022/10/19 06:06:24;;;;;;;29.80;27.60;;;13.80;99.90;;;;;;5051724;28;20213;-77
2022/10/19 06:08:51;;;;;;;30.90;28.23;;;13.80;99.90;;;;;;5053476;28;20218;-76
2022/10/19 06:11:20;;;;;;;31.03;28.83;;;13.80;99.90;;;;;;5051384;28;20179;-77
2022/10/19 06:13:49;;;;;;;30.43;27.60;;;13.80;99.90;;;;;;5052376;28;20285;-76
2022/10/19 06:16:16;;;;;;;32.33;29.13;;;13.90;99.90;;;;;;5050735;28;20186;-77
2022/10/19 06:18:43;;;;;;;33.43;30.10;;;13.90;99.90;;;;;;5051602;28;20209;-77
2022/10/19 06:21:17;;;;;;;31.23;28.73;;;13.90;99.90;;;;;;5050431;28;20190;-77
2022/10/19 06:23:43;;;;;;;29.60;27.27;;;13.90;99.90;;;;;;5050913;28;20218;-76
2022/10/19 06:26:11;;;;;;;27.30;25.07;;;13.90;99.90;;;;;;5054349;28;20187;-76
2022/10/19 06:28:40;;;;;;;25.30;23.30;;;14.00;99.90;;;;;;5052989;28;20267;-77
2022/10/19 06:31:06;;;;;;;37.40;34.37;;;14.00;99.90;;;;;;5054932;28;20174;-77
2022/10/19 06:33:32;;;;;;;47.40;43.33;;;14.00;99.90;;;;;;5053438;28;20808;-76
2022/10/19 06:36:12;;;;;;;54.77;50.87;;;14.10;99.90;;;;;;5050553;28;20651;-76
2022/10/19 06:38:39;;;;;;;31.30;28.70;;;14.10;99.90;;;;;;5049973;28;20178;-77
2022/10/19 06:41:05;;;;;;;18.13;15.77;;;14.20;99.90;;;;;;5050624;28;20178;-77
2022/10/19 06:43:32;;;;;;;17.83;15.70;;;14.30;99.90;;;;;;5049470;28;20209;-76
2022/10/19 06:45:58;;;;;;;50.10;46.60;;;14.30;99.90;;;;;;5050524;28;20190;-77
2022/10/19 06:48:24;;;;;;;238.57;224.53;;;14.40;99.90;;;;;;5050415;28;20229;-77
2022/10/19 06:50:56;;;;;;;328.40;309.53;;;14.50;99.90;;;;;;5049273;28;20257;-76
2022/10/19 06:53:22;;;;;;;232.43;219.23;;;14.60;99.90;;;;;;5050551;28;20198;-76
2022/10/19 06:55:48;;;;;;;126.57;119.47;;;14.70;99.90;;;;;;5052184;28;20551;-79
2022/10/19 06:58:14;;;;;;;83.53;78.60;;;14.80;99.90;;;;;;5051378;28;20267;-76
2022/10/19 07:00:40;;;;;;;51.63;47.70;;;14.90;99.90;;;;;;5049658;28;20202;-77
2022/10/19 07:03:05;;;;;;;26.83;24.67;;;15.10;99.90;;;;;;5048588;28;20816;-77
2022/10/19 07:05:31;;;;;;;16.83;15.13;;;15.10;99.90;;;;;;5050371;28;20537;-77
2022/10/19 07:07:57;;;;;;;17.80;13.90;;;15.20;99.90;;;;;;5049967;28;20210;-77
2022/10/19 07:10:23;;;;;;;15.70;14.13;;;15.30;99.90;;;;;;5051701;28;20174;-78
2022/10/19 07:12:48;;;;;;;22.60;20.20;;;15.40;99.90;;;;;;5050373;28;20224;-77
2022/10/19 07:15:14;;;;;;;62.13;58.43;;;15.50;99.90;;;;;;5051897;28;20211;-77
2022/10/19 07:17:40;;;;;;;102.27;96.53;;;15.60;99.90;;;;;;5053202;28;20190;-78
2022/10/19 07:20:06;;;;;;;99.57;93.53;;;15.60;99.90;;;;;;5051113;28;20190;-78
2022/10/19 07:22:32;;;;;;;62.23;58.30;;;15.70;99.90;;;;;;5048996;28;20214;-77
2022/10/19 07:24:58;;;;;;;35.07;32.67;;;15.80;99.90;;;;;;5050820;28;20193;-77
2022/10/19 07:27:24;;;;;;;19.93;18.43;;;15.90;99.90;;;;;;5049599;28;20202;-77
2022/10/19 07:29:49;;;;;;;28.13;25.93;;;16.00;99.90;;;;;;5048342;28;21052;-76
2022/10/19 07:32:15;;;;;;;26.10;23.90;;;15.90;99.90;;;;;;5048808;28;20248;-76
2022/10/19 07:34:41;;;;;;;34.10;31.50;;;16.00;99.90;;;;;;5053445;28;20685;-77
2022/10/19 07:37:07;;;;;;;110.77;104.97;;;16.10;99.90;;;;;;5053395;28;20205;-76
2022/10/19 07:39:32;;;;;;;93.00;87.80;;;16.20;99.90;;;;;;5050753;28;20659;-76
2022/10/19 07:41:58;;;;;;;37.73;35.10;;;16.30;99.90;;;;;;5053110;28;20211;-77
2022/10/19 07:44:25;;;;;;;26.87;25.00;;;16.30;99.90;;;;;;5054040;28;20202;-76
2022/10/19 07:46:51;;;;;;;17.37;15.90;;;16.30;99.90;;;;;;5038785;28;20202;-77
2022/10/19 07:49:18;;;;;;;11.40;10.43;;;16.40;99.90;;;;;;5036499;28;20175;-77
2022/10/19 07:51:45;;;;;;;14.57;12.63;;;16.40;99.90;;;;;;5034613;28;20187;-77
2022/10/19 07:54:12;;;;;;;14.13;12.73;;;16.50;99.90;;;;;;5037038;28;20257;-77
2022/10/19 07:56:38;;;;;;;19.40;18.07;;;16.50;99.90;;;;;;5053560;28;20174;-76
2022/10/19 07:59:04;;;;;;;19.50;18.20;;;16.50;99.90;;;;;;5053111;28;20213;-76
2022/10/19 08:01:33;;;;;;;22.37;20.57;;;16.50;99.90;;;;;;5052850;28;20214;-77
2022/10/19 08:04:00;;;;;;;21.17;19.63;;;16.50;99.90;;;;;;5054503;28;20225;-77
2022/10/19 08:06:27;;;;;;;25.13;23.33;;;16.50;99.90;;;;;;5058658;28;20182;-77
2022/10/19 08:08:53;;;;;;;23.07;21.47;;;16.60;99.90;;;;;;5058771;28;20293;-78
2022/10/19 08:11:20;;;;;;;19.87;17.97;;;16.70;99.90;;;;;;5060555;28;20273;-77
2022/10/19 08:13:46;;;;;;;53.53;50.37;;;17.00;99.90;;;;;;5059148;28;20267;-76
2022/10/19 08:16:39;;;;;;;32.40;30.50;;;17.20;99.90;;;;;;5052724;28;20189;-76
2022/10/19 08:19:15;;;;;;;14.33;13.33;;;17.30;99.90;;;;;;5047428;28;20183;-76
2022/10/19 08:21:45;;;;;;;8.90;8.23;;;17.30;99.90;;;;;;5033681;28;20186;-78
2022/10/19 08:24:13;;;;;;;9.70;8.80;;;17.40;99.90;;;;;;5035163;28;20590;-77
2022/10/19 08:26:40;;;;;;;9.27;8.57;;;17.40;99.90;;;;;;5035806;28;20190;-77
2022/10/19 08:29:18;;;;;;;9.30;8.60;;;17.30;99.90;;;;;;5041940;28;20297;-75
2022/10/19 08:31:46;;;;;;;8.70;8.10;;;17.20;99.90;;;;;;5052258;28;20186;-74
2022/10/19 08:34:13;;;;;;;8.43;7.83;;;17.10;99.90;;;;;;5051667;28;20198;-76
2022/10/19 08:36:42;;;;;;;8.47;7.43;;;17.10;99.90;;;;;;5058579;28;20186;-78
2022/10/19 08:39:11;;;;;;;9.77;8.30;;;17.10;99.90;;;;;;5062850;28;20889;-79
2022/10/19 08:41:40;;;;;;;9.33;8.43;;;17.10;99.90;;;;;;5055870;28;20178;-77
2022/10/19 08:44:27;;;;;;;8.47;7.67;;;17.10;99.90;;;;;;5052672;28;20270;-79
2022/10/19 08:47:20;;;;;;;8.33;7.63;;;17.00;99.90;;;;;;5050182;28;20191;-76
2022/10/19 08:49:46;;;;;;;13.80;12.97;;;17.20;99.90;;;;;;5032500;28;20221;-75
2022/10/19 08:52:17;;;;;;;18.07;17.03;;;17.30;99.90;;;;;;5032262;28;20175;-76
2022/10/19 08:54:55;;;;;;;30.27;28.57;;;17.40;99.90;;;;;;5032568;28;20652;-76
2022/10/19 08:57:30;;;;;;;44.07;41.67;;;17.50;99.90;;;;;;5048463;28;20186;-74
2022/10/19 09:00:15;;;;;;;38.50;36.40;;;17.60;99.90;;;;;;5052379;28;20309;-75
2022/10/19 09:03:07;;;;;;;33.53;31.73;;;17.60;99.90;;;;;;5050973;28;20255;-75
2022/10/19 09:06:08;;;;;;;31.20;29.53;;;17.50;99.90;;;;;;5051187;28;20655;-74
2022/10/19 09:08:37;;;;;;;38.23;35.97;;;17.50;99.90;;;;;;5043564;28;20232;-74
2022/10/19 09:11:04;;;;;;;30.27;28.47;;;17.60;99.90;;;;;;5050903;28;20205;-75
2022/10/19 09:13:41;;;;;;;30.60;28.87;;;17.80;99.90;;;;;;5050816;28;20229;-76
2022/10/19 09:16:12;;;;;;;30.97;29.27;;;17.90;99.90;;;;;;5051008;28;20563;-75
2022/10/19 09:18:38;;;;;;;21.83;20.40;;;18.10;99.90;;;;;;5034161;28;20184;-75
2022/10/19 09:21:21;;;;;;;9.03;8.23;;;18.20;99.90;;;;;;5032721;28;20638;-75
2022/10/19 09:24:03;;;;;;;16.10;15.03;;;18.30;99.90;;;;;;5051950;22;20229;-77
2022/10/19 09:26:35;;;;;;;18.47;17.27;;;18.40;99.90;;;;;;5031571;28;20183;-76
2022/10/19 09:29:34;;;;;;;23.53;21.93;;;18.40;99.90;;;;;;5031914;28;20214;-75
2022/10/19 09:32:05;;;;;;;20.10;18.90;;;18.30;99.90;;;;;;5032150;28;20632;-76
2022/10/19 09:34:36;;;;;;;21.60;20.27;;;18.50;99.90;;;;;;5030742;28;20257;-76
2022/10/19 09:37:03;;;;;;;20.87;19.57;;;18.60;99.90;;;;;;5030565;28;20260;-76
2022/10/19 09:39:29;;;;;;;19.03;17.93;;;18.60;99.90;;;;;;5031523;28;20279;-76
2022/10/19 09:42:19;;;;;;;20.13;18.83;;;18.50;99.90;;;;;;5031986;28;20179;-75
2022/10/19 09:44:45;;;;;;;10.70;9.47;;;18.30;99.90;;;;;;5031855;28;20640;-75
2022/10/19 09:47:18;;;;;;;10.73;10.03;;;18.00;99.90;;;;;;5032247;28;20266;-76
2022/10/19 09:49:47;;;;;;;15.73;14.73;;;18.10;99.90;;;;;;5031714;28;20183;-76
2022/10/19 09:52:36;;;;;;;15.27;14.23;;;18.10;99.90;;;;;;5030338;28;20175;-75
2022/10/19 09:55:16;;;;;;;18.87;17.77;;;18.20;99.90;;;;;;5032341;28;20266;-76
2022/10/19 09:57:44;;;;;;;17.70;16.67;;;18.40;99.90;;;;;;5031551;28;20187;-75
2022/10/19 10:00:24;;;;;;;20.73;19.53;;;18.50;99.90;;;;;;5031733;28;20174;-75
2022/10/19 10:02:52;;;;;;;17.10;16.10;;;18.50;99.90;;;;;;5030504;28;20225;-75
2022/10/19 10:05:20;;;;;;;16.97;15.60;;;18.70;99.90;;;;;;5031960;28;20286;-75
2022/10/19 10:07:47;;;;;;;9.53;8.93;;;18.90;99.90;;;;;;5031175;28;20219;-76
2022/10/19 10:10:38;;;;;;;20.90;19.90;;;19.10;99.90;;;;;;5030448;28;20175;-75
2022/10/19 10:13:04;;;;;;;20.53;19.43;;;19.10;99.90;;;;;;5015231;28;20250;-75
2022/10/19 10:15:41;;;;;;;15.53;14.73;;;19.10;99.90;;;;;;5010311;28;20545;-75
2022/10/19 10:18:12;;;;;;;12.10;11.50;;;19.40;99.90;;;;;;5022137;28;20556;-75
2022/10/19 10:20:56;;;;;;;10.93;10.33;;;19.50;99.90;;;;;;5032808;28;20186;-76
2022/10/19 10:23:25;;;;;;;5.50;5.10;;;19.50;99.90;;;;;;5030755;28;20214;-74
2022/10/19 10:25:55;;;;;;;10.73;10.13;;;19.20;99.90;;;;;;5032229;28;20179;-77
2022/10/19 10:28:23;;;;;;;8.33;7.73;;;19.60;99.90;;;;;;5032801;28;20277;-76
2022/10/19 10:31:06;;;;;;;8.07;7.37;;;19.70;99.90;;;;;;5030784;28;20266;-76
2022/10/19 10:33:36;;;;;;;6.10;5.70;;;20.30;99.90;;;;;;5024648;28;20207;-77
2022/10/19 10:36:08;;;;;;;58.73;55.93;;;21.50;99.90;;;;;;5028643;28;20257;-77
2022/10/19 10:38:39;;;;;;;60.40;57.33;;;22.30;99.90;;;;;;5037952;28;20241;-77
2022/10/19 10:41:15;;;;;;;53.17;50.60;;;22.10;99.90;;;;;;5043541;28;20179;-77
2022/10/19 10:44:02;;;;;;;77.43;73.70;;;21.60;99.90;;;;;;5039137;28;20214;-77
2022/10/19 10:46:38;;;;;;;18.50;17.60;;;21.60;99.90;;;;;;5029864;28;20187;-77
2022/10/19 10:49:07;;;;;;;15.90;15.17;;;21.90;99.90;;;;;;5029716;28;20244;-76
2022/10/19 10:51:38;;;;;;;11.07;10.47;;;22.20;99.90;;;;;;5031957;28;20182;-77
2022/10/19 10:54:25;;;;;;;9.33;8.73;;;21.90;99.90;;;;;;5038057;28;20198;-76
2022/10/19 10:57:17;;;;;;;12.57;11.87;;;21.50;99.90;;;;;;5020025;28;20184;-76
2022/10/19 10:59:54;;;;;;;36.47;34.40;;;21.10;99.90;;;;;;5026585;28;20709;-77
2022/10/19 11:02:40;;;;;;;91.97;87.17;;;20.60;99.90;;;;;;5027131;28;20265;-77
2022/10/19 11:05:31;;;;;;;99.53;94.73;;;20.30;99.90;;;;;;5032233;28;20183;-77
2022/10/19 11:08:11;;;;;;;89.27;84.77;;;20.10;99.90;;;;;;5042738;28;20198;-77
2022/10/19 11:11:22;;;;;;;8.13;7.63;;;19.70;99.90;;;;;;5040813;28;20175;-77
2022/10/19 11:14:09;;;;;;;5.37;5.03;;;19.10;99.90;;;;;;5034814;28;20214;-77
2022/10/19 11:16:41;;;;;;;10.23;9.40;;;19.00;99.90;;;;;;5033670;28;20183;-75
2022/10/19 11:19:13;;;;;;;8.03;7.63;;;19.00;99.90;;;;;;5035482;28;20190;-77
2022/10/19 11:21:47;;;;;;;6.17;5.73;;;19.00;99.90;;;;;;5036697;28;20191;-77
2022/10/19 11:24:36;;;;;;;6.40;5.90;;;19.10;99.90;;;;;;5035694;28;20380;-77
2022/10/19 11:27:17;;;;;;;5.87;5.50;;;19.90;99.90;;;;;;5036361;28;20222;-77
2022/10/19 11:30:08;;;;;;;11.00;10.17;;;20.40;99.90;;;;;;5036669;28;20679;-76
2022/10/19 11:32:55;;;;;;;29.73;28.27;;;20.50;99.90;;;;;;5034603;28;20179;-78
2022/10/19 11:35:51;;;;;;;27.47;26.10;;;20.50;99.90;;;;;;5034966;28;20203;-77
2022/10/19 11:38:45;;;;;;;56.17;52.83;;;20.50;99.90;;;;;;5038409;28;20282;-77
2022/10/19 11:41:29;;;;;;;70.17;66.70;;;21.10;99.90;;;;;;5040007;28;20214;-77
2022/10/19 11:44:16;;;;;;;12.70;11.90;;;22.60;99.90;;;;;;5022033;28;20622;-76
2022/10/19 11:46:57;;;;;;;15.02;14.15;;;24.10;99.90;;;;;;5014127;28;20618;-75
2022/10/19 11:49:47;;;;;;;26.15;24.85;;;23.90;99.90;;;;;;5018023;28;20237;-77
2022/10/19 11:52:27;;;;;;;52.47;49.65;;;23.50;99.90;;;;;;5025364;28;20186;-77
2022/10/19 11:54:59;;;;;;;45.03;42.67;;;23.00;99.90;;;;;;5015301;28;20211;-77
2022/10/19 11:57:31;;;;;;;28.23;26.48;;;22.20;99.90;;;;;;5028923;28;20202;-77
2022/10/19 12:00:13;;;;;;;48.00;45.37;;;22.70;99.90;;;;;;5034049;28;20183;-76
2022/10/19 12:02:51;;;;;;;55.88;52.97;;;23.40;99.90;;;;;;5032385;28;20542;-76
2022/10/19 12:05:26;;;;;;;32.42;30.80;;;23.50;99.90;;;;;;5033642;28;20273;-74
2022/10/19 12:08:16;;;;;;;28.00;26.38;;;23.30;99.90;;;;;;5032031;28;20218;-73
2022/10/19 12:10:52;;;;;;;31.35;29.70;;;23.20;99.90;;;;;;5033057;28;20179;-74
2022/10/19 12:13:22;;;;;;;49.33;46.65;;;24.10;99.90;;;;;;5033421;28;20210;-73
2022/10/19 12:15:52;;;;;;;33.97;32.28;;;25.00;99.90;;;;;;5032928;28;20175;-73
2022/10/19 12:18:22;;;;;;;46.20;43.65;;;25.40;99.90;;;;;;5032918;28;20194;-73
2022/10/19 12:20:55;;;;;;;52.50;49.50;;;25.80;99.90;;;;;;5032117;28;20195;-72
2022/10/19 12:23:31;;;;;;;61.72;58.50;;;26.60;99.90;;;;;;5033102;28;20214;-73
2022/10/19 12:26:00;;;;;;;60.47;57.35;;;26.30;99.90;;;;;;5017089;28;20187;-73
2022/10/19 12:28:40;;;;;;;35.38;33.58;;;26.30;99.90;;;;;;5032704;28;20683;-73
2022/10/19 12:31:06;;;;;;;22.38;21.02;;;27.00;99.90;;;;;;5033509;28;20277;-73
2022/10/19 12:34:09;;;;;;;30.42;28.88;;;26.90;99.90;;;;;;5044925;28;20219;-73
2022/10/19 12:36:43;;;;;;;17.30;16.27;;;26.90;99.90;;;;;;5038117;28;20816;-73
2022/10/19 12:39:12;;;;;;;16.02;15.13;;;27.70;99.90;;;;;;5032451;28;20190;-75
2022/10/19 12:41:56;;;;;;;7.43;6.88;;;27.30;99.90;;;;;;5032872;28;20789;-74
2022/10/19 12:44:39;;;;;;;5.90;5.55;;;27.60;99.70;;;;;;5033528;28;20591;-77
2022/10/19 12:47:17;;;;;;;5.18;4.47;;;26.80;99.90;;;;;;5032356;28;20198;-74
2022/10/19 12:49:50;;;;;;;4.30;4.10;;;27.70;99.10;;;;;;5028792;28;20548;-73